createdAt,value
2024-04-18T00:00:11.272Z,91.89
2024-04-18T00:02:38.011Z,92.53
2024-04-18T00:05:05.087Z,92.54
2024-04-18T00:07:31.914Z,91.68
2024-04-18T00:09:58.573Z,91.23
2024-04-18T00:12:25.415Z,91.25
2024-04-18T00:14:52.297Z,90.92
2024-04-18T00:17:19.090Z,91.33
2024-04-18T00:19:45.804Z,91.97
2024-04-18T00:22:12.530Z,92.03
2024-04-18T00:24:39.307Z,92.81
2024-04-18T00:27:06.290Z,92.71
2024-04-18T00:29:33.338Z,92.44
2024-04-18T00:32:00.061Z,92.32
2024-04-18T00:34:26.793Z,92.47
2024-04-18T00:36:53.492Z,92.47
2024-04-18T00:39:20.255Z,92.50
2024-04-18T00:41:46.951Z,92.47
2024-04-18T00:44:13.758Z,92.65
2024-04-18T00:46:41.061Z,92.39
2024-04-18T00:49:09.205Z,92.38
2024-04-18T00:51:35.981Z,91.97
2024-04-18T00:54:03.755Z,92.24
2024-04-18T00:56:30.619Z,92.41
2024-04-18T00:58:57.574Z,92.33
2024-04-18T01:01:26.532Z,91.87
2024-04-18T01:03:55.440Z,92.24
2024-04-18T01:06:22.334Z,92.57
2024-04-18T01:08:49.521Z,92.30
2024-04-18T01:11:16.250Z,92.25
2024-04-18T01:13:43.062Z,91.70
2024-04-18T01:16:09.771Z,91.84
2024-04-18T01:18:36.763Z,91.75
2024-04-18T01:21:03.565Z,91.91
2024-04-18T01:23:30.383Z,91.44
2024-04-18T01:25:57.477Z,91.58
2024-04-18T01:28:24.153Z,92.21
2024-04-18T01:30:50.915Z,91.94
2024-04-18T01:33:17.833Z,92.25
2024-04-18T01:35:44.666Z,92.25
2024-04-18T01:38:11.334Z,92.34
2024-04-18T01:40:38.052Z,92.21
2024-04-18T01:43:04.872Z,91.96
2024-04-18T01:45:31.653Z,92.13
2024-04-18T01:47:58.489Z,92.21
2024-04-18T01:50:25.268Z,92.00
2024-04-18T01:52:51.975Z,91.68
2024-04-18T01:55:18.797Z,92.19
2024-04-18T01:57:45.496Z,91.99
2024-04-18T02:00:12.574Z,92.48
2024-04-18T02:02:39.494Z,92.16
2024-04-18T02:05:06.338Z,92.49
2024-04-18T02:07:33.105Z,91.86
2024-04-18T02:09:59.904Z,92.42
2024-04-18T02:12:26.674Z,91.96
2024-04-18T02:14:53.396Z,91.60
2024-04-18T02:17:20.078Z,91.80
2024-04-18T02:19:46.820Z,91.42
2024-04-18T02:22:13.557Z,91.72
2024-04-18T02:25:04.166Z,91.41
2024-04-18T02:27:31.080Z,91.34
2024-04-18T02:29:57.764Z,91.25
2024-04-18T02:32:24.472Z,91.24
2024-04-18T02:34:51.249Z,91.21
2024-04-18T02:37:17.952Z,91.35
2024-04-18T02:39:44.753Z,91.50
2024-04-18T02:42:11.572Z,91.35
2024-04-18T02:44:38.270Z,91.31
2024-04-18T02:47:05.127Z,91.41
2024-04-18T02:49:31.835Z,91.36
2024-04-18T02:51:58.558Z,91.63
2024-04-18T02:54:25.374Z,91.56
2024-04-18T02:56:52.138Z,91.61
2024-04-18T02:59:18.954Z,91.42
2024-04-18T03:01:45.680Z,90.96
2024-04-18T03:04:12.861Z,91.20
2024-04-18T03:06:39.689Z,91.50
2024-04-18T03:09:06.420Z,91.61
2024-04-18T03:11:33.233Z,92.02
2024-04-18T03:14:00.162Z,91.93
2024-04-18T03:16:26.886Z,91.64
2024-04-18T03:18:53.725Z,91.91
2024-04-18T03:21:20.487Z,91.54
2024-04-18T03:23:47.211Z,91.60
2024-04-18T03:26:13.930Z,91.42
2024-04-18T03:28:40.674Z,91.22
2024-04-18T03:31:07.352Z,91.36
2024-04-18T03:33:34.075Z,91.53
2024-04-18T03:36:07.032Z,91.50
2024-04-18T03:38:33.711Z,91.59
2024-04-18T03:41:00.424Z,91.56
2024-04-18T03:43:27.197Z,91.47
2024-04-18T03:46:01.084Z,91.42
2024-04-18T03:48:28.251Z,91.91
2024-04-18T03:50:54.981Z,91.60
2024-04-18T03:53:22.020Z,91.72
2024-04-18T03:55:48.753Z,91.42
2024-04-18T03:58:15.446Z,91.43
2024-04-18T04:00:43.047Z,91.19
2024-04-18T04:03:10.351Z,91.13
2024-04-18T04:05:37.565Z,90.83
2024-04-18T04:08:05.395Z,90.92
2024-04-18T04:10:32.155Z,91.19
2024-04-18T04:12:58.838Z,90.56
2024-04-18T04:15:25.590Z,90.42
2024-04-18T04:17:52.933Z,90.17
2024-04-18T04:20:19.687Z,89.75
2024-04-18T04:22:46.411Z,89.56
2024-04-18T04:25:13.117Z,89.75
2024-04-18T04:27:39.811Z,89.82
2024-04-18T04:30:07.251Z,89.04
2024-04-18T04:32:34.027Z,89.28
2024-04-18T04:35:00.768Z,89.34
2024-04-18T04:37:27.497Z,89.32
2024-04-18T04:39:54.227Z,88.64
2024-04-18T04:42:21.045Z,88.99
2024-04-18T04:44:47.844Z,88.25
2024-04-18T04:47:14.606Z,88.71
2024-04-18T04:49:41.386Z,88.73
2024-04-18T04:52:08.309Z,88.40
2024-04-18T04:54:35.070Z,88.47
2024-04-18T04:57:01.860Z,88.67
2024-04-18T04:59:28.598Z,88.43
2024-04-18T05:01:55.314Z,87.94
2024-04-18T05:04:22.155Z,87.69
2024-04-18T05:06:48.996Z,87.81
2024-04-18T05:09:17.472Z,87.75
2024-04-18T05:11:44.384Z,87.71
2024-04-18T05:14:11.143Z,87.77
2024-04-18T05:16:37.870Z,87.90
2024-04-18T05:19:05.337Z,88.07
2024-04-18T05:21:32.070Z,87.99
2024-04-18T05:23:58.924Z,87.64
2024-04-18T05:26:25.611Z,87.87
2024-04-18T05:28:52.384Z,87.51
2024-04-18T05:31:19.050Z,86.68
2024-04-18T05:33:45.754Z,87.09
2024-04-18T05:36:12.705Z,86.54
2024-04-18T05:38:39.369Z,85.24
2024-04-18T05:41:06.082Z,85.40
2024-04-18T05:43:35.144Z,84.51
2024-04-18T05:46:02.212Z,84.57
2024-04-18T05:48:29.017Z,84.57
2024-04-18T05:50:55.755Z,83.09
2024-04-18T05:53:22.432Z,81.89
2024-04-18T05:55:49.203Z,81.56
2024-04-18T05:58:15.929Z,78.69
2024-04-18T06:00:43.093Z,78.33
2024-04-18T06:03:09.937Z,78.40
2024-04-18T06:05:36.763Z,76.80
2024-04-18T06:08:03.601Z,76.25
2024-04-18T06:10:30.311Z,75.53
2024-04-18T06:12:57.097Z,76.52
2024-04-18T06:15:23.885Z,74.23
2024-04-18T06:17:50.625Z,74.21
2024-04-18T06:20:17.427Z,72.93
2024-04-18T06:22:44.094Z,73.02
2024-04-18T06:25:10.887Z,71.05
2024-04-18T06:27:37.624Z,71.58
2024-04-18T06:30:04.773Z,71.41
2024-04-18T06:32:31.679Z,71.29
2024-04-18T06:34:58.398Z,71.49
2024-04-18T06:37:25.089Z,70.21
2024-04-18T06:39:51.835Z,70.00
2024-04-18T06:42:18.592Z,70.95
2024-04-18T06:44:45.367Z,71.07
2024-04-18T06:47:12.229Z,72.76
2024-04-18T06:49:39.011Z,73.36
2024-04-18T06:52:05.892Z,72.71
2024-04-18T06:54:32.701Z,73.91
2024-04-18T06:56:59.388Z,74.22
2024-04-18T06:59:26.038Z,74.39
2024-04-18T07:01:52.878Z,75.58
2024-04-18T07:04:19.755Z,75.15
2024-04-18T07:06:46.601Z,73.87
2024-04-18T07:09:13.367Z,73.86
2024-04-18T07:11:40.032Z,73.23
2024-04-18T07:14:06.735Z,74.24
2024-04-18T07:16:33.496Z,74.90
2024-04-18T07:19:00.291Z,74.18
2024-04-18T07:21:27.157Z,72.88
2024-04-18T07:23:53.846Z,73.17
2024-04-18T07:26:20.592Z,72.73
2024-04-18T07:28:47.290Z,73.71
2024-04-18T07:31:14.027Z,72.19
2024-04-18T07:33:40.888Z,71.84
2024-04-18T07:36:07.717Z,73.51
2024-04-18T07:38:34.383Z,73.67
2024-04-18T07:41:01.085Z,74.01
2024-04-18T07:43:27.815Z,73.68
2024-04-18T07:45:54.636Z,74.07
2024-04-18T07:48:21.660Z,71.75
2024-04-18T07:50:48.602Z,71.07
2024-04-18T07:53:15.294Z,70.25
2024-04-18T07:55:42.716Z,70.74
2024-04-18T07:58:10.023Z,70.35
2024-04-18T08:00:38.200Z,69.73
2024-04-18T08:03:06.554Z,69.08
2024-04-18T08:05:36.944Z,69.90
2024-04-18T08:08:08.296Z,69.46
2024-04-18T08:10:47.586Z,66.95
2024-04-18T08:13:27.676Z,67.99
2024-04-18T08:18:24.253Z,67.41
2024-04-18T08:20:50.944Z,69.18
2024-04-18T08:23:19.906Z,66.80
2024-04-18T08:25:47.362Z,65.34
2024-04-18T08:28:14.096Z,66.19
2024-04-18T08:30:41.205Z,66.07
2024-04-18T08:33:08.229Z,67.14
2024-04-18T08:35:35.232Z,66.69
2024-04-18T08:38:01.893Z,67.08
2024-04-18T08:40:28.728Z,65.78
2024-04-18T08:42:55.750Z,64.25
2024-04-18T08:45:26.664Z,63.13
2024-04-18T08:47:53.926Z,62.02
2024-04-18T08:50:21.285Z,63.21
2024-04-18T08:52:48.057Z,64.57
2024-04-18T08:55:14.990Z,64.10
2024-04-18T08:58:09.237Z,61.27
2024-04-18T09:00:36.055Z,60.56
2024-04-18T09:03:04.051Z,60.68
2024-04-18T09:05:31.266Z,60.92
2024-04-18T09:07:58.351Z,59.16
2024-04-18T09:10:25.135Z,60.55
2024-04-18T09:12:51.904Z,59.65
2024-04-18T09:15:18.626Z,59.25
2024-04-18T09:17:45.496Z,59.06
2024-04-18T09:20:12.591Z,59.08
2024-04-18T09:22:39.288Z,56.67
2024-04-18T09:25:06.297Z,56.24
2024-04-18T09:27:34.830Z,58.81
2024-04-18T09:30:01.704Z,59.37
2024-04-18T09:32:29.637Z,56.70
2024-04-18T09:34:58.290Z,55.83
2024-04-18T09:37:27.763Z,53.32
2024-04-18T09:39:57.645Z,55.85
2024-04-18T09:42:35.215Z,54.39
2024-04-18T09:45:05.159Z,56.26
2024-04-18T09:47:32.573Z,56.17
2024-04-18T09:50:00.322Z,55.30
2024-04-18T09:52:27.992Z,54.87
2024-04-18T09:54:56.733Z,54.55
2024-04-18T09:57:25.041Z,56.94
2024-04-18T09:59:53.755Z,55.16
2024-04-18T10:02:22.385Z,54.05
2024-04-18T10:04:50.283Z,54.27
2024-04-18T10:07:19.499Z,54.93
2024-04-18T10:09:47.169Z,54.85
2024-04-18T10:12:14.574Z,54.04
2024-04-18T10:14:42.545Z,52.54
2024-04-18T10:17:24.922Z,53.46
2024-04-18T10:19:52.520Z,54.46
2024-04-18T10:22:29.431Z,54.29
2024-04-18T10:25:04.194Z,53.66
2024-04-18T10:27:30.998Z,54.50
2024-04-18T10:30:01.022Z,56.84
2024-04-18T10:32:29.518Z,53.23
2024-04-18T10:34:56.317Z,53.19
2024-04-18T10:37:24.095Z,53.57
2024-04-18T10:39:53.368Z,53.81
2024-04-18T10:42:21.493Z,54.89
2024-04-18T10:44:49.408Z,54.12
2024-04-18T10:47:20.621Z,52.91
2024-04-18T10:49:47.395Z,53.72
2024-04-18T10:52:20.637Z,53.96
2024-04-18T10:54:47.488Z,56.11
2024-04-18T10:57:14.587Z,53.58
2024-04-18T10:59:41.776Z,53.52
2024-04-18T11:02:09.562Z,53.95
2024-04-18T11:04:36.455Z,52.20
2024-04-18T11:07:03.931Z,53.69
2024-04-18T11:09:30.939Z,52.65
2024-04-18T11:11:57.935Z,53.01
2024-04-18T11:14:24.756Z,53.80
2024-04-18T11:17:00.886Z,52.25
2024-04-18T11:19:31.251Z,53.22
2024-04-18T11:22:02.826Z,52.82
2024-04-18T11:24:30.044Z,54.20
2024-04-18T11:26:56.999Z,57.40
2024-04-18T11:29:27.081Z,54.67
2024-04-18T11:31:53.983Z,56.02
2024-04-18T11:34:20.823Z,55.83
2024-04-18T11:36:47.907Z,55.85
2024-04-18T11:39:14.460Z,56.11
2024-04-18T11:41:41.269Z,57.30
2024-04-18T11:44:07.959Z,56.25
2024-04-18T11:46:34.722Z,58.32
2024-04-18T11:49:01.703Z,58.12
2024-04-18T11:51:28.368Z,57.20
2024-04-18T11:53:55.057Z,59.14
2024-04-18T11:56:21.784Z,59.91
2024-04-18T11:58:48.502Z,59.27
2024-04-18T12:01:15.224Z,58.53
2024-04-18T12:03:42.111Z,56.98
2024-04-18T12:06:09.056Z,56.83
2024-04-18T12:08:35.753Z,57.72
2024-04-18T12:11:02.521Z,58.19
2024-04-18T12:13:29.357Z,60.24
2024-04-18T12:15:56.317Z,60.55
2024-04-18T12:18:23.180Z,61.33
2024-04-18T12:20:50.011Z,59.57
2024-04-18T12:23:16.708Z,59.44
2024-04-18T12:25:43.442Z,57.85
2024-04-18T12:28:10.113Z,58.16
2024-04-18T12:30:36.884Z,59.85
2024-04-18T12:33:04.956Z,59.74
2024-04-18T12:35:31.770Z,59.92
2024-04-18T12:37:58.796Z,60.31
2024-04-18T12:40:25.522Z,60.04
2024-04-18T12:42:52.265Z,61.30
2024-04-18T12:45:18.968Z,59.43
2024-04-18T12:47:45.828Z,61.62
2024-04-18T12:50:12.691Z,60.78
2024-04-18T12:52:39.525Z,62.12
2024-04-18T12:55:06.390Z,61.78
2024-04-18T12:57:33.081Z,60.81
2024-04-18T12:59:59.867Z,62.70
2024-04-18T13:02:26.586Z,63.55
2024-04-18T13:04:53.434Z,62.73
2024-04-18T13:07:20.290Z,62.69
2024-04-18T13:09:47.007Z,63.14
2024-04-18T13:12:13.672Z,62.67
2024-04-18T13:14:40.411Z,62.10
2024-04-18T13:17:07.148Z,62.76
2024-04-18T13:19:33.847Z,62.42
2024-04-18T13:22:00.972Z,62.19
2024-04-18T13:24:27.613Z,62.54
2024-04-18T13:26:54.510Z,61.40
2024-04-18T13:29:21.883Z,60.67
2024-04-18T13:31:48.967Z,59.50
2024-04-18T13:34:15.736Z,60.10
2024-04-18T13:36:42.606Z,60.59
2024-04-18T13:39:09.316Z,60.10
2024-04-18T13:41:36.129Z,59.33
2024-04-18T13:44:02.839Z,59.77
2024-04-18T13:46:29.603Z,61.06
2024-04-18T13:48:56.306Z,58.85
2024-04-18T13:51:23.073Z,58.68
2024-04-18T13:53:49.773Z,57.84
2024-04-18T13:56:16.549Z,56.28
2024-04-18T13:58:43.276Z,56.96
2024-04-18T14:01:10.052Z,56.74
2024-04-18T14:03:36.897Z,55.03
2024-04-18T14:06:05.574Z,55.37
2024-04-18T14:08:32.285Z,57.58
2024-04-18T14:10:58.940Z,57.73
2024-04-18T14:13:25.675Z,56.69
2024-04-18T14:15:54.917Z,57.01
2024-04-18T14:18:21.674Z,57.28
2024-04-18T14:20:49.210Z,57.44
2024-04-18T14:23:16.886Z,57.78
2024-04-18T14:25:43.661Z,59.25
2024-04-18T14:28:20.220Z,59.68
2024-04-18T14:30:53.999Z,59.10
2024-04-18T14:33:20.896Z,59.12
2024-04-18T14:35:47.689Z,58.06
2024-04-18T14:38:14.653Z,58.20
2024-04-18T14:40:49.776Z,59.57
2024-04-18T14:43:20.267Z,57.76
2024-04-18T14:45:47.143Z,58.30
2024-04-18T14:48:13.894Z,59.24
2024-04-18T14:50:40.656Z,59.64
2024-04-18T14:53:07.462Z,59.08
2024-04-18T14:55:34.126Z,58.77
2024-04-18T14:58:00.851Z,59.11
2024-04-18T15:00:27.657Z,58.34
2024-04-18T15:02:54.631Z,58.85
2024-04-18T15:05:21.427Z,58.00
2024-04-18T15:07:49.091Z,59.71
2024-04-18T15:10:16.182Z,59.16
2024-04-18T15:12:42.842Z,59.09
2024-04-18T15:15:09.835Z,59.16
2024-04-18T15:17:36.546Z,59.98
2024-04-18T15:20:03.428Z,59.75
2024-04-18T15:22:30.767Z,59.19
2024-04-18T15:24:57.758Z,60.24
2024-04-18T15:27:24.424Z,58.77
2024-04-18T15:29:51.264Z,58.73
2024-04-18T15:32:17.996Z,59.23
2024-04-18T15:34:44.702Z,58.98
2024-04-18T15:37:11.381Z,58.43
2024-04-18T15:39:38.394Z,58.59
2024-04-18T15:42:05.411Z,58.83
2024-04-18T15:44:32.107Z,58.74
2024-04-18T15:46:58.829Z,58.74
2024-04-18T15:49:25.626Z,59.33
2024-04-18T15:51:52.395Z,57.92
2024-04-18T15:54:19.092Z,59.32
2024-04-18T15:56:45.830Z,59.78
2024-04-18T15:59:12.634Z,58.60
2024-04-18T16:01:39.382Z,58.19
2024-04-18T16:04:06.395Z,59.15
2024-04-18T16:06:33.172Z,58.74
2024-04-18T16:08:59.836Z,59.87
2024-04-18T16:11:26.616Z,59.57
2024-04-18T16:13:53.355Z,60.08
2024-04-18T16:16:20.171Z,61.04
2024-04-18T16:18:46.922Z,60.98
2024-04-18T16:21:14.209Z,60.79
2024-04-18T16:23:41.155Z,61.38
2024-04-18T16:26:07.824Z,61.27
2024-04-18T16:28:34.583Z,61.52
2024-04-18T16:31:01.291Z,60.93
2024-04-18T16:33:28.012Z,61.33
2024-04-18T16:35:54.815Z,60.84
2024-04-18T16:38:21.536Z,62.70
2024-04-18T16:40:48.247Z,62.43
2024-04-18T16:43:14.952Z,62.00
2024-04-18T16:45:44.153Z,61.45
2024-04-18T16:48:11.008Z,61.73
2024-04-18T16:50:37.755Z,61.91
2024-04-18T16:53:04.630Z,63.12
2024-04-18T16:55:31.453Z,63.56
2024-04-18T16:57:58.121Z,64.02
2024-04-18T17:00:24.821Z,64.55
2024-04-18T17:02:51.637Z,64.96
2024-04-18T17:05:18.412Z,65.49
2024-04-18T17:07:45.122Z,65.99
2024-04-18T17:10:11.835Z,67.15
2024-04-18T17:12:38.615Z,67.34
2024-04-18T17:15:05.548Z,68.25
2024-04-18T17:17:32.471Z,68.51
2024-04-18T17:19:59.270Z,68.70
2024-04-18T17:22:25.954Z,69.58
2024-04-18T17:24:52.724Z,69.87
2024-04-18T17:27:19.550Z,70.56
2024-04-18T17:29:46.307Z,70.83
2024-04-18T17:32:13.021Z,70.80
2024-04-18T17:34:39.737Z,71.23
2024-04-18T17:37:06.432Z,71.58
2024-04-18T17:39:33.254Z,72.19
2024-04-18T17:42:00.177Z,73.12
2024-04-18T17:44:26.856Z,73.24
2024-04-18T17:46:57.539Z,73.72
2024-04-18T17:49:24.647Z,73.34
2024-04-18T17:51:51.900Z,73.94
2024-04-18T17:54:19.035Z,74.09
2024-04-18T17:56:46.343Z,72.40
2024-04-18T17:59:12.980Z,72.51
2024-04-18T18:01:42.541Z,72.34
2024-04-18T18:04:10.848Z,72.94
2024-04-18T18:06:37.759Z,72.17
2024-04-18T18:09:04.551Z,72.83
2024-04-18T18:11:31.353Z,73.04
2024-04-18T18:13:58.177Z,73.75
2024-04-18T18:16:25.860Z,74.17
2024-04-18T18:18:52.753Z,74.62
2024-04-18T18:21:19.504Z,74.63
2024-04-18T18:23:46.315Z,74.48
2024-04-18T18:26:13.038Z,75.14
2024-04-18T18:28:39.837Z,74.23
2024-04-18T18:31:06.650Z,74.63
2024-04-18T18:33:33.465Z,75.17
2024-04-18T18:36:00.214Z,74.82
2024-04-18T18:38:26.885Z,74.80
2024-04-18T18:40:53.634Z,75.75
2024-04-18T18:43:20.303Z,75.23
2024-04-18T18:45:47.012Z,75.42
2024-04-18T18:48:13.950Z,76.05
2024-04-18T18:50:43.905Z,75.10
2024-04-18T18:53:10.642Z,76.30
2024-04-18T18:55:37.343Z,76.49
2024-04-18T18:58:04.489Z,76.73
2024-04-18T19:00:31.401Z,76.76
2024-04-18T19:02:59.800Z,76.12
2024-04-18T19:05:28.407Z,76.83
2024-04-18T19:07:55.133Z,77.66
2024-04-18T19:10:21.843Z,79.84
2024-04-18T19:12:48.613Z,80.28
2024-04-18T19:15:15.379Z,80.59
2024-04-18T19:17:42.249Z,81.05
2024-04-18T19:20:09.320Z,82.41
2024-04-18T19:22:36.069Z,82.48
2024-04-18T19:25:02.911Z,82.87
2024-04-18T19:27:30.053Z,83.00
2024-04-18T19:29:56.864Z,82.48
2024-04-18T19:32:23.564Z,82.04
2024-04-18T19:34:50.276Z,82.79
2024-04-18T19:37:17.139Z,82.82
2024-04-18T19:39:44.123Z,83.26
2024-04-18T19:42:10.974Z,83.84
2024-04-18T19:44:37.721Z,84.99
2024-04-18T19:47:04.854Z,85.94
2024-04-18T19:49:37.826Z,85.69
2024-04-18T19:52:07.622Z,84.96
2024-04-18T19:54:35.423Z,85.68
2024-04-18T19:57:02.246Z,86.41
2024-04-18T19:59:28.951Z,86.43
2024-04-18T20:01:55.723Z,86.68
2024-04-18T20:04:22.552Z,86.30
2024-04-18T20:06:49.357Z,86.50
2024-04-18T20:09:16.148Z,86.65
2024-04-18T20:11:42.902Z,86.84
2024-04-18T20:14:09.682Z,86.73
2024-04-18T20:16:36.419Z,86.16
2024-04-18T20:19:03.470Z,86.59
2024-04-18T20:21:30.315Z,86.42
2024-04-18T20:23:57.057Z,86.42
2024-04-18T20:26:23.774Z,86.48
2024-04-18T20:28:50.474Z,86.51
2024-04-18T20:31:17.202Z,86.87
2024-04-18T20:33:43.971Z,87.09
2024-04-18T20:36:10.716Z,86.43
2024-04-18T20:38:37.450Z,87.07
2024-04-18T20:41:04.413Z,87.33
2024-04-18T20:43:31.138Z,86.65
2024-04-18T20:45:57.910Z,86.35
2024-04-18T20:48:24.726Z,86.83
2024-04-18T20:50:51.455Z,87.28
2024-04-18T20:53:18.151Z,87.81
2024-04-18T20:55:44.884Z,87.20
2024-04-18T20:58:11.616Z,86.83
2024-04-18T21:00:38.335Z,86.59
2024-04-18T21:03:05.462Z,86.91
2024-04-18T21:05:32.170Z,86.99
2024-04-18T21:07:58.840Z,87.58
2024-04-18T21:10:25.562Z,87.99
2024-04-18T21:12:52.238Z,88.29
2024-04-18T21:15:19.024Z,87.43
2024-04-18T21:17:45.893Z,87.62
2024-04-18T21:20:12.642Z,87.93
2024-04-18T21:22:39.338Z,87.38
2024-04-18T21:25:06.095Z,87.38
2024-04-18T21:27:32.862Z,87.56
2024-04-18T21:29:59.603Z,88.36
2024-04-18T21:32:26.331Z,87.67
2024-04-18T21:34:53.016Z,88.56
2024-04-18T21:37:19.688Z,89.77
2024-04-18T21:39:46.470Z,89.19
2024-04-18T21:42:13.299Z,89.53
2024-04-18T21:44:40.024Z,90.38
2024-04-18T21:47:06.742Z,90.64
2024-04-18T21:49:33.503Z,91.11
2024-04-18T21:52:00.183Z,91.96
2024-04-18T21:54:26.867Z,92.07
2024-04-18T21:56:53.651Z,92.27
2024-04-18T21:59:20.312Z,92.21
2024-04-18T22:01:47.010Z,91.40
2024-04-18T22:04:13.889Z,91.31
2024-04-18T22:06:40.806Z,91.37
2024-04-18T22:09:07.546Z,90.90
2024-04-18T22:11:34.302Z,90.35
2024-04-18T22:14:01.065Z,89.80
2024-04-18T22:16:27.896Z,90.15
2024-04-18T22:18:54.771Z,89.79
2024-04-18T22:21:21.597Z,89.68
2024-04-18T22:23:51.609Z,89.89
2024-04-18T22:26:19.071Z,90.00
2024-04-18T22:28:45.815Z,90.54
2024-04-18T22:31:12.525Z,90.15
2024-04-18T22:33:39.346Z,91.05
2024-04-18T22:36:06.317Z,92.22
2024-04-18T22:38:32.966Z,92.82
2024-04-18T22:40:59.610Z,92.96
2024-04-18T22:43:26.380Z,93.35
2024-04-18T22:45:53.116Z,93.91
2024-04-18T22:48:20.140Z,93.83
2024-04-18T22:50:46.978Z,94.04
2024-04-18T22:53:13.969Z,93.86
2024-04-18T22:55:40.686Z,94.06
2024-04-18T22:58:07.420Z,93.48
2024-04-18T23:00:38.085Z,94.16
2024-04-18T23:03:05.833Z,93.80
2024-04-18T23:05:33.412Z,93.28
2024-04-18T23:08:00.067Z,93.24
2024-04-18T23:10:26.783Z,93.57
2024-04-18T23:12:53.525Z,94.09
2024-04-18T23:15:20.218Z,94.89
2024-04-18T23:17:47.141Z,95.05
2024-04-18T23:20:13.880Z,94.98
2024-04-18T23:22:40.578Z,95.48
2024-04-18T23:25:07.412Z,95.42
2024-04-18T23:27:34.137Z,95.33
2024-04-18T23:30:02.142Z,95.29
2024-04-18T23:32:29.173Z,95.17
2024-04-18T23:34:55.884Z,95.78
2024-04-18T23:37:22.779Z,96.05
2024-04-18T23:39:49.570Z,95.51
2024-04-18T23:42:16.303Z,96.09
2024-04-18T23:44:43.297Z,95.68
2024-04-18T23:47:10.295Z,95.93
2024-04-18T23:49:37.024Z,95.98
2024-04-18T23:52:03.936Z,95.54
2024-04-18T23:54:30.712Z,95.71
2024-04-18T23:56:57.364Z,96.20
2024-04-18T23:59:24.124Z,96.47
